Crabtree, Arkansas
Current Conditions -  °F | °C
As of 3:53 PM on Wednesday 22 Oct 2014 (Local Time) from KRUE Reporting Station
Clear Clear  
Wind Chill: 72°   Ceiling: Unl
Heat Index: 72°   Visibility: 10mi
Dew Point: 50°   Wind: 0mph
Humidity: 46%   Direction: NA
Pressure: 30.16"   Gusts: NA
Location:  35.6269°N, 92.5508°W
Report Text: KRUE 222053Z AUTO 00000KT 10SM CLR 22/10 A3016 RMK AO2 SLP207 T02220100 56019
Loading
Personal Weather Stations






























Interactive Weather Map
Tropical Storm Tracking
New forecast layout! Learn more

10-Day Weather Forecast

Advertisements
Track Severe Weather on mobile